ドバイ の空港の天気 - METARとTAF

ドバイ国際空港 ( OMDB / DXB ) - アラブ首長国連邦 ドバイ
飛行場実況気象(Metar)
観測時間08/11 11:00 GST (08/11 07:00 UTC)
風向・風速北 4m/s
視程10km以上
天気現象
なし
気温42℃
湿度36%
気圧997hPa
METAROMDB 110700Z VRB07KT CAVOK 42/24 Q0997 NOSIG
過去の天気等 Google飛行場航空写真 Wunderground天気予報

過去48時間のMETAR

飛行場予報(TAF)
発表時間: 8/11 09:00 GST (8/11 05:00 UTC)
予報対象時間: 11日10時 GST ~ 12日16時 GST
風向・風速南南東 4m/s
視程8000m
なし
11日12時 GST ~ 11日14時 GST に徐々に
風向・風速北北西 7m/s
11日21時 GST ~ 11日23時 GST に徐々に
風向・風速東 3m/s
12日7時 GST ~ 12日9時 GST に徐々に
風向・風速南 5m/s
12日10時 GST ~ 12日12時 GST に徐々に
風向・風速西北西 6m/s
TAF OMDB 110500Z 1106/1212 15008KT 8000 NSC
BECMG 1108/1110 34013KT
BECMG 1117/1119 08005KT
BECMG 1203/1205 18010KT
BECMG 1206/1208 30012KT